Time;durP1;ratioP1;P1;durP2;ratioP2;P2;SDS_P1;SDS_P2;PMS_P1;PMS_P2;Temp;Humidity;BMP_temperature;BMP_pressure;BME280_temperature;BME280_humidity;BME280_pressure;Samples;Min_cycle;Max_cycle;Signal;HPM_P1;HPM_P2
2022/10/25 00:01:04;;;;;;;;;;;23.60;99.90;;;;;;4993385;28;19932;-66
2022/10/25 00:03:31;;;;;;;;;;;23.80;99.90;;;;;;4993348;28;20409;-66
2022/10/25 00:05:57;;;;;;;;;;;24.00;99.90;;;;;;4992809;28;19914;-67
2022/10/25 00:08:24;;;;;;;;;;;24.10;99.90;;;;;;4992777;28;19918;-67
2022/10/25 00:10:51;;;;;;;;;;;24.20;99.90;;;;;;4993253;28;20362;-66
2022/10/25 00:13:17;;;;;;;;;;;24.30;99.90;;;;;;4993233;28;19910;-66
2022/10/25 00:15:44;;;;;;;;;;;24.20;99.90;;;;;;4993063;28;20294;-66
2022/10/25 00:18:10;;;;;;;;;;;24.10;99.90;;;;;;4992770;28;19910;-65
2022/10/25 00:20:37;;;;;;;;;;;24.10;99.90;;;;;;4993149;28;20318;-66
2022/10/25 00:23:04;;;;;;;;;;;24.00;99.90;;;;;;4992989;28;19917;-66
2022/10/25 00:25:30;;;;;;;;;;;24.00;99.90;;;;;;4992796;28;19916;-66
2022/10/25 00:27:57;;;;;;;;;;;24.00;99.90;;;;;;4992562;28;19945;-67
2022/10/25 00:30:23;;;;;;;;;;;24.00;99.90;;;;;;4992115;28;19910;-67
2022/10/25 00:32:51;;;;;;;;;;;23.90;99.90;;;;;;4992810;28;19909;-66
2022/10/25 00:35:18;;;;;;;;;;;24.00;99.90;;;;;;4992744;28;20343;-66
2022/10/25 00:37:45;;;;;;;;;;;24.10;99.90;;;;;;4992659;28;20420;-66
2022/10/25 00:40:11;;;;;;;;;;;24.20;99.90;;;;;;4992758;28;19914;-67
2022/10/25 00:42:38;;;;;;;;;;;24.40;99.90;;;;;;4992611;28;19914;-67
2022/10/25 00:45:25;;;;;;;;;;;24.50;99.90;;;;;;4992255;28;19922;-66
2022/10/25 00:47:54;;;;;;;;;;;24.70;99.90;;;;;;4991960;28;20277;-67
2022/10/25 00:50:36;;;;;;;;;;;24.90;99.90;;;;;;4992313;28;19914;-69
2022/10/25 00:53:06;;;;;;;;;;;25.10;99.90;;;;;;4992346;28;19909;-67
2022/10/25 00:55:33;;;;;;;;;;;25.30;99.90;;;;;;4992354;28;19910;-67
2022/10/25 00:58:03;;;;;;;;;;;25.70;99.90;;;;;;4992161;28;19910;-67
2022/10/25 01:00:30;;;;;;;;;;;26.10;99.90;;;;;;4991909;28;19917;-67
2022/10/25 01:02:56;;;;;;;;;;;26.30;99.90;;;;;;4992131;28;20527;-67
2022/10/25 01:05:23;;;;;;;;;;;26.40;99.90;;;;;;4992251;28;20377;-67
2022/10/25 01:07:50;;;;;;;;;;;26.40;99.90;;;;;;4992420;28;20017;-69
2022/10/25 01:10:16;;;;;;;;;;;26.30;99.90;;;;;;4992297;28;20254;-66
2022/10/25 01:12:43;;;;;;;;;;;26.20;99.90;;;;;;4992201;28;19914;-67
2022/10/25 01:15:10;;;;;;;;;;;26.10;99.90;;;;;;4992188;28;19914;-66
2022/10/25 01:17:37;;;;;;;;;;;26.00;99.90;;;;;;4992114;28;19917;-67
2022/10/25 01:20:22;;;;;;;;;;;26.00;99.90;;;;;;4992157;28;20419;-68
2022/10/25 01:22:53;;;;;;;;;;;26.30;99.90;;;;;;4991970;28;19910;-67
2022/10/25 01:25:38;;;;;;;;;;;26.70;99.90;;;;;;4992254;28;19937;-67
2022/10/25 01:28:09;;;;;;;;;;;27.00;99.90;;;;;;4991860;28;19918;-67
2022/10/25 01:30:53;;;;;;;;;;;27.00;99.90;;;;;;4991756;28;19963;-67
2022/10/25 01:33:39;;;;;;;;;;;26.90;99.70;;;;;;4991751;28;19914;-66
2022/10/25 01:36:18;;;;;;;;;;;26.70;99.90;;;;;;4991349;28;19916;-67
2022/10/25 01:38:49;;;;;;;;;;;26.80;99.90;;;;;;4974491;28;19945;-67
2022/10/25 01:41:24;;;;;;;;;;;27.10;99.90;;;;;;4990866;28;19910;-67
2022/10/25 01:43:53;;;;;;;;;;;27.30;99.90;;;;;;4991470;28;19910;-67
2022/10/25 01:46:35;;;;;;;;;;;27.30;99.80;;;;;;4991721;28;19949;-67
2022/10/25 01:49:07;;;;;;;;;;;27.50;99.40;;;;;;4991610;28;19914;-67
2022/10/25 01:51:37;;;;;;;;;;;27.60;98.90;;;;;;4991497;28;19941;-66
2022/10/25 01:54:16;;;;;;;;;;;27.60;97.80;;;;;;4991299;28;20366;-68
2022/10/25 01:56:53;;;;;;;;;;;27.50;97.50;;;;;;4991521;28;19955;-67
2022/10/25 01:59:22;;;;;;;;;;;27.50;97.60;;;;;;4991594;28;19914;-68
2022/10/25 02:01:55;;;;;;;;;;;27.70;98.30;;;;;;4991470;28;19913;-68
2022/10/25 02:04:36;;;;;;;;;;;27.80;95.20;;;;;;5110436;27;19912;-67
2022/10/25 02:07:31;;;;;;;;;;;28.00;96.20;;;;;;5110786;28;19919;-66
2022/10/25 02:10:10;;;;;;;;;;;28.10;95.40;;;;;;5101443;28;19915;-66
2022/10/25 02:12:51;;;;;;;;;;;27.90;94.60;;;;;;5110380;28;19934;-67
2022/10/25 02:15:22;;;;;;;;;;;27.80;94.30;;;;;;5110300;28;19916;-66
2022/10/25 02:17:53;;;;;;;;;;;28.00;94.80;;;;;;5110188;28;19947;-67
2022/10/25 02:20:22;;;;;;;;;;;28.50;94.60;;;;;;5110267;28;20374;-68
2022/10/25 02:22:49;;;;;;;;;;;28.80;93.80;;;;;;5110198;28;19931;-65
2022/10/25 02:25:17;;;;;;;;;;;28.80;94.70;;;;;;5110073;28;19931;-68
2022/10/25 02:27:45;;;;;;;;;;;28.60;93.30;;;;;;5110028;28;20288;-67
2022/10/25 02:30:12;;;;;;;;;;;28.90;94.10;;;;;;5110160;28;19961;-67
2022/10/25 02:32:38;;;;;;;;;;;28.90;93.80;;;;;;5110288;28;19908;-67
2022/10/25 02:35:05;;;;;;;;;;;28.70;94.30;;;;;;5110112;28;19950;-67
2022/10/25 02:37:32;;;;;;;;;;;28.80;94.80;;;;;;5110072;28;19947;-67
2022/10/25 02:39:59;;;;;;;;;;;29.00;93.90;;;;;;5109857;28;19991;-67
2022/10/25 02:42:25;;;;;;;;;;;29.50;94.30;;;;;;5110086;28;19969;-68
2022/10/25 02:44:52;;;;;;;;;;;29.70;93.10;;;;;;5109849;28;19908;-66
2022/10/25 02:47:18;;;;;;;;;;;29.80;93.40;;;;;;5109961;28;20368;-66
2022/10/25 02:49:45;;;;;;;;;;;30.40;91.90;;;;;;5108355;28;19908;-67
2022/10/25 02:52:12;;;;;;;;;;;30.70;90.90;;;;;;5109602;28;19908;-67
2022/10/25 02:54:38;;;;;;;;;;;30.80;90.60;;;;;;5109708;28;19908;-67
2022/10/25 02:57:05;;;;;;;;;;;30.80;88.40;;;;;;5109327;28;20372;-67
2022/10/25 02:59:31;;;;;;;;;;;30.70;88.20;;;;;;5109609;28;19908;-68
2022/10/25 03:01:58;;;;;;;;;;;30.40;88.10;;;;;;5109655;28;19988;-68
2022/10/25 03:04:25;;;;;;;;;;;30.00;90.00;;;;;;5129589;28;19919;-67
2022/10/25 03:06:51;;;;;;;;;;;30.00;90.60;;;;;;5111759;28;19912;-67
2022/10/25 03:09:18;;;;;;;;;;;29.60;90.10;;;;;;5130015;28;20382;-67
2022/10/25 03:11:44;;;;;;;;;;;29.30;90.90;;;;;;5129968;28;19915;-67
2022/10/25 03:14:11;;;;;;;;;;;29.20;91.30;;;;;;5125476;28;20364;-67
2022/10/25 03:16:38;;;;;;;;;;;29.10;91.70;;;;;;5116166;28;19904;-66
2022/10/25 03:19:04;;;;;;;;;;;29.00;92.00;;;;;;5116150;28;20383;-66
2022/10/25 03:21:31;;;;;;;;;;;28.80;91.80;;;;;;5115764;28;20382;-67
2022/10/25 03:23:58;;;;;;;;;;;28.50;92.90;;;;;;5115294;28;19922;-67
2022/10/25 03:26:24;;;;;;;;;;;28.40;93.80;;;;;;5097608;28;19908;-67
2022/10/25 03:28:51;;;;;;;;;;;28.00;95.30;;;;;;5115843;28;19915;-67
2022/10/25 03:31:19;;;;;;;;;;;28.00;96.80;;;;;;5115889;28;20150;-66
2022/10/25 03:33:46;;;;;;;;;;;29.00;96.70;;;;;;5115672;28;19984;-67
2022/10/25 03:36:13;;;;;;;;;;;30.30;94.50;;;;;;5097390;28;19907;-67
2022/10/25 03:38:39;;;;;;;;;;;32.10;92.80;;;;;;5115873;28;20356;-68
2022/10/25 03:41:06;;;;;;;;;;;33.50;91.60;;;;;;5115532;28;19907;-67
2022/10/25 03:43:32;;;;;;;;;;;35.30;86.40;;;;;;5115671;28;19916;-68
2022/10/25 03:45:59;;;;;;;;;;;35.50;84.70;;;;;;5115466;28;19908;-68
2022/10/25 03:48:26;;;;;;;;;;;36.40;82.20;;;;;;5115899;28;19908;-67
2022/10/25 03:50:53;;;;;;;;;;;36.60;80.10;;;;;;5114881;28;19928;-66
2022/10/25 03:53:20;;;;;;;;;;;36.40;77.80;;;;;;5115065;28;19912;-68
2022/10/25 03:55:47;;;;;;;;;;;36.20;80.00;;;;;;5114866;28;19915;-67
2022/10/25 03:58:13;;;;;;;;;;;37.00;76.30;;;;;;5114869;28;19914;-66
2022/10/25 04:00:40;;;;;;;;;;;37.20;75.40;;;;;;5114826;28;19908;-68
2022/10/25 04:03:06;;;;;;;;;;;37.10;74.80;;;;;;5114832;28;20430;-67
2022/10/25 04:05:33;;;;;;;;;;;36.60;76.00;;;;;;5114500;28;19908;-67
2022/10/25 04:08:00;;;;;;;;;;;36.40;75.70;;;;;;5115138;28;19907;-67
2022/10/25 04:10:26;;;;;;;;;;;36.30;75.50;;;;;;5114963;28;20011;-67
2022/10/25 04:12:53;;;;;;;;;;;35.80;75.50;;;;;;5115096;28;19908;-67
2022/10/25 04:15:20;;;;;;;;;;;36.20;76.30;;;;;;5114727;28;20364;-68
2022/10/25 04:17:50;;;;;;;;;;;36.80;74.10;;;;;;5114783;28;19915;-68
2022/10/25 04:20:17;;;;;;;;;;;37.10;73.30;;;;;;5115166;28;19912;-68
2022/10/25 04:22:44;;;;;;;;;;;37.30;73.90;;;;;;5114836;28;20367;-68
2022/10/25 04:25:11;;;;;;;;;;;37.30;73.60;;;;;;5114579;28;19916;-68
2022/10/25 04:27:37;;;;;;;;;;;37.10;72.10;;;;;;5113895;28;20372;-68
2022/10/25 04:30:04;;;;;;;;;;;35.80;73.30;;;;;;5114647;28;20278;-68
2022/10/25 04:32:30;;;;;;;;;;;34.20;76.80;;;;;;5114843;28;20398;-68
2022/10/25 04:34:57;;;;;;;;;;;32.60;80.10;;;;;;5114524;28;19915;-68
2022/10/25 04:37:24;;;;;;;;;;;31.10;84.80;;;;;;5114406;28;20439;-67
2022/10/25 04:39:50;;;;;;;;;;;29.80;87.40;;;;;;5114697;28;20281;-67
2022/10/25 04:42:18;;;;;;;;;;;28.70;90.50;;;;;;5114053;28;19907;-68
2022/10/25 04:44:44;;;;;;;;;;;28.20;91.50;;;;;;5096005;28;20056;-68
2022/10/25 04:47:11;;;;;;;;;;;27.70;92.40;;;;;;5114315;28;19912;-69
2022/10/25 04:49:38;;;;;;;;;;;27.20;92.90;;;;;;5113926;28;19915;-67
2022/10/25 04:52:04;;;;;;;;;;;26.70;94.10;;;;;;5114131;28;19915;-68
2022/10/25 04:54:31;;;;;;;;;;;26.30;95.30;;;;;;5114122;28;19996;-67
2022/10/25 04:56:58;;;;;;;;;;;25.80;96.00;;;;;;5114077;28;19908;-67
2022/10/25 04:59:24;;;;;;;;;;;25.40;96.50;;;;;;5114183;28;19919;-67
2022/10/25 05:01:51;;;;;;;;;;;25.10;97.90;;;;;;5114184;28;20280;-68
2022/10/25 05:04:18;;;;;;;;;;;25.00;98.60;;;;;;5113683;28;19972;-67
2022/10/25 05:06:44;;;;;;;;;;;24.70;99.00;;;;;;5114392;28;19914;-67
2022/10/25 05:09:11;;;;;;;;;;;24.50;99.90;;;;;;5109965;28;19919;-65
2022/10/25 05:11:37;;;;;;;;;;;24.40;99.90;;;;;;5105579;28;19973;-67
2022/10/25 05:14:04;;;;;;;;;;;24.30;99.90;;;;;;5103556;28;19912;-67
2022/10/25 05:16:33;;;;;;;;;;;24.20;99.90;;;;;;5103288;28;19923;-67
2022/10/25 05:19:00;;;;;;;;;;;24.00;99.90;;;;;;5107252;28;20372;-66
2022/10/25 05:21:29;;;;;;;;;;;24.00;99.90;;;;;;5113010;28;19915;-66
2022/10/25 05:23:57;;;;;;;;;;;23.90;99.90;;;;;;5105751;28;19931;-67
2022/10/25 05:26:23;;;;;;;;;;;24.00;99.90;;;;;;5098431;28;19912;-67
2022/10/25 05:28:51;;;;;;;;;;;24.00;99.90;;;;;;5088979;28;19912;-68
2022/10/25 05:31:19;;;;;;;;;;;24.00;99.90;;;;;;5104533;28;20276;-69
2022/10/25 05:33:48;;;;;;;;;;;23.90;99.90;;;;;;5078357;28;20098;-67
2022/10/25 05:36:15;;;;;;;;;;;23.90;99.90;;;;;;5101862;28;20432;-66
2022/10/25 05:38:41;;;;;;;;;;;23.90;99.90;;;;;;5073506;28;20360;-65
2022/10/25 05:41:10;;;;;;;;;;;23.90;99.90;;;;;;5104572;28;19908;-66
2022/10/25 05:43:38;;;;;;;;;;;23.90;99.90;;;;;;5095472;28;19915;-67
2022/10/25 05:46:09;;;;;;;;;;;24.00;99.90;;;;;;5086511;28;20031;-67
2022/10/25 05:48:36;;;;;;;;;;;24.00;99.90;;;;;;5091849;28;19912;-67
2022/10/25 05:51:09;;;;;;;;;;;24.10;99.90;;;;;;5104790;28;19914;-67
2022/10/25 05:53:36;;;;;;;;;;;24.10;99.90;;;;;;5088305;28;19911;-66
2022/10/25 05:56:02;;;;;;;;;;;24.10;99.90;;;;;;5095406;28;19915;-66
2022/10/25 05:58:29;;;;;;;;;;;24.10;99.90;;;;;;5086431;28;19919;-67
2022/10/25 06:00:58;;;;;;;;;;;24.10;99.90;;;;;;5096463;28;19977;-66
2022/10/25 06:03:25;;;;;;;;;;;24.10;99.90;;;;;;5088163;28;19967;-67
2022/10/25 06:05:52;;;;;;;;;;;24.30;99.90;;;;;;5095783;28;19918;-68
2022/10/25 06:08:18;;;;;;;;;;;24.40;99.90;;;;;;5100305;28;20368;-67
2022/10/25 06:10:45;;;;;;;;;;;24.60;99.90;;;;;;5101462;28;20027;-68
2022/10/25 06:13:11;;;;;;;;;;;24.90;99.90;;;;;;5099661;28;19918;-68
2022/10/25 06:15:38;;;;;;;;;;;25.60;99.90;;;;;;5102703;28;19934;-68
2022/10/25 06:18:05;;;;;;;;;;;26.40;99.90;;;;;;5099028;28;20279;-69
2022/10/25 06:20:32;;;;;;;;;;;27.50;99.10;;;;;;5084387;28;20337;-68
2022/10/25 06:22:59;;;;;;;;;;;28.60;97.10;;;;;;5099782;28;19938;-68
2022/10/25 06:25:25;;;;;;;;;;;29.80;94.80;;;;;;5103831;28;19908;-68
2022/10/25 06:27:52;;;;;;;;;;;30.90;93.10;;;;;;5099830;28;19916;-68
2022/10/25 06:30:18;;;;;;;;;;;32.00;91.60;;;;;;5103790;28;19954;-68
2022/10/25 06:32:45;;;;;;;;;;;32.90;90.00;;;;;;5098496;28;20315;-67
2022/10/25 06:35:12;;;;;;;;;;;33.30;88.20;;;;;;5101896;28;19919;-67
2022/10/25 06:37:38;;;;;;;;;;;33.00;88.50;;;;;;5096131;28;19961;-69
2022/10/25 06:40:05;;;;;;;;;;;33.00;88.60;;;;;;5086674;28;20314;-66
2022/10/25 06:42:32;;;;;;;;;;;32.70;89.10;;;;;;5102367;28;19915;-67
2022/10/25 06:44:59;;;;;;;;;;;32.30;90.10;;;;;;5081474;28;20335;-67
2022/10/25 06:47:25;;;;;;;;;;;32.10;90.30;;;;;;5087501;28;19908;-68
2022/10/25 06:49:52;;;;;;;;;;;32.10;90.90;;;;;;5094408;28;20012;-68
2022/10/25 06:52:18;;;;;;;;;;;31.80;91.20;;;;;;5092206;28;19916;-68
2022/10/25 06:54:45;;;;;;;;;;;30.70;90.50;;;;;;5104023;28;20002;-70
2022/10/25 06:57:12;;;;;;;;;;;29.90;91.60;;;;;;5104610;28;19943;-68
2022/10/25 06:59:38;;;;;;;;;;;29.00;92.60;;;;;;5105141;28;19915;-67
2022/10/25 07:02:05;;;;;;;;;;;28.30;92.60;;;;;;5104996;28;19961;-68
2022/10/25 07:04:31;;;;;;;;;;;27.60;93.60;;;;;;5105656;28;20311;-66
2022/10/25 07:06:58;;;;;;;;;;;27.00;94.90;;;;;;5106623;28;20015;-68
2022/10/25 07:09:25;;;;;;;;;;;26.60;95.80;;;;;;5106529;28;19912;-68
2022/10/25 07:11:51;;;;;;;;;;;26.00;96.90;;;;;;5106181;28;20429;-69
2022/10/25 07:14:18;;;;;;;;;;;25.50;97.70;;;;;;5105678;28;19916;-68
2022/10/25 07:16:45;;;;;;;;;;;25.30;98.30;;;;;;5107115;28;20774;-67
2022/10/25 07:19:11;;;;;;;;;;;25.10;99.20;;;;;;5102990;28;20371;-68
2022/10/25 07:21:38;;;;;;;;;;;25.00;99.90;;;;;;5107294;28;19915;-67
2022/10/25 07:24:05;;;;;;;;;;;24.90;99.70;;;;;;5102110;28;20268;-67
2022/10/25 07:26:33;;;;;;;;;;;24.60;99.90;;;;;;5088552;28;19912;-67
2022/10/25 07:29:00;;;;;;;;;;;24.40;99.90;;;;;;5100768;28;20320;-67
2022/10/25 07:31:29;;;;;;;;;;;24.30;99.90;;;;;;5102338;28;19916;-68
2022/10/25 07:33:57;;;;;;;;;;;24.20;99.90;;;;;;5096488;28;19908;-69
2022/10/25 07:36:23;;;;;;;;;;;24.10;99.90;;;;;;5103416;28;19912;-66
2022/10/25 07:38:50;;;;;;;;;;;23.90;99.90;;;;;;5100608;28;19908;-68
2022/10/25 07:41:17;;;;;;;;;;;23.80;99.90;;;;;;5089838;28;19912;-66
2022/10/25 07:43:43;;;;;;;;;;;23.60;99.90;;;;;;5103772;28;19933;-67
2022/10/25 07:46:10;;;;;;;;;;;23.40;99.90;;;;;;5103701;28;19907;-69
2022/10/25 07:48:37;;;;;;;;;;;23.20;99.90;;;;;;5097039;28;19915;-68
2022/10/25 07:51:04;;;;;;;;;;;23.20;99.90;;;;;;5105554;28;20417;-69
2022/10/25 07:53:31;;;;;;;;;;;23.00;99.90;;;;;;5096867;28;19908;-68
2022/10/25 07:55:57;;;;;;;;;;;22.90;99.90;;;;;;5085870;28;19908;-67
2022/10/25 07:58:25;;;;;;;;;;;22.80;99.90;;;;;;5086244;28;20758;-67
2022/10/25 08:00:51;;;;;;;;;;;22.70;99.90;;;;;;5087227;28;19923;-67
2022/10/25 08:03:18;;;;;;;;;;;22.60;99.90;;;;;;5084945;28;19931;-67
2022/10/25 08:05:45;;;;;;;;;;;22.60;99.90;;;;;;5087337;28;19957;-67
2022/10/25 08:08:13;;;;;;;;;;;22.50;99.90;;;;;;5085421;28;19912;-67
2022/10/25 08:10:43;;;;;;;;;;;22.40;99.90;;;;;;5087308;28;20356;-66
2022/10/25 08:13:10;;;;;;;;;;;22.40;99.90;;;;;;5085876;28;20405;-67
2022/10/25 08:15:36;;;;;;;;;;;22.40;99.90;;;;;;5086522;28;19955;-67
2022/10/25 08:18:03;;;;;;;;;;;22.30;99.90;;;;;;5086781;28;19912;-65
2022/10/25 08:20:30;;;;;;;;;;;22.40;99.90;;;;;;5106176;27;19954;-68
2022/10/25 08:23:00;;;;;;;;;;;22.40;99.90;;;;;;5106328;27;19915;-68
2022/10/25 08:25:27;;;;;;;;;;;22.40;99.90;;;;;;5102504;28;19912;-65
2022/10/25 08:27:54;;;;;;;;;;;22.40;99.90;;;;;;5106746;28;19912;-66
2022/10/25 08:30:21;;;;;;;;;;;22.50;99.90;;;;;;5102082;28;19920;-65
2022/10/25 08:32:47;;;;;;;;;;;22.50;99.90;;;;;;5106463;27;19963;-66
2022/10/25 08:35:14;;;;;;;;;;;22.50;99.90;;;;;;5105663;28;20224;-66
2022/10/25 08:37:41;;;;;;;;;;;22.50;99.90;;;;;;5103527;28;20368;-66
2022/10/25 08:40:14;;;;;;;;;;;22.50;99.90;;;;;;5105886;28;19919;-66
2022/10/25 08:42:46;;;;;;;;;;;22.50;99.90;;;;;;5092164;28;19946;-66
2022/10/25 08:45:22;;;;;;;;;;;22.30;99.90;;;;;;5098351;28;19919;-66
2022/10/25 08:47:51;;;;;;;;;;;22.20;99.90;;;;;;5106996;28;19908;-65
2022/10/25 08:50:20;;;;;;;;;;;22.00;99.90;;;;;;5104691;28;19943;-66
2022/10/25 08:52:54;;;;;;;;;;;21.90;99.90;;;;;;5097782;28;19912;-65
2022/10/25 08:55:43;;;;;;;;;;;21.80;99.90;;;;;;5103033;28;19923;-66
2022/10/25 08:58:16;;;;;;;;;;;21.70;99.90;;;;;;5092343;28;19912;-65
2022/10/25 09:00:44;;;;;;;;;;;21.60;99.90;;;;;;5085085;28;19908;-68
2022/10/25 09:03:15;;;;;;;;;;;21.60;99.90;;;;;;5088199;28;19920;-67
2022/10/25 09:06:08;;;;;;;;;;;21.60;99.90;;;;;;5085253;28;19908;-66
2022/10/25 09:08:40;;;;;;;;;;;21.60;99.90;;;;;;5052369;28;19995;-67
2022/10/25 09:11:26;;;;;;;;;;;21.60;99.90;;;;;;5085868;28;19908;-66
2022/10/25 09:14:02;;;;;;;;;;;21.60;99.90;;;;;;5099269;28;19969;-66
2022/10/25 09:16:29;;;;;;;;;;;21.60;99.90;;;;;;5104293;28;19912;-66
2022/10/25 09:18:56;;;;;;;;;;;21.50;99.90;;;;;;5088087;28;19919;-64
2022/10/25 09:21:25;;;;;;;;;;;21.50;99.90;;;;;;5098529;28;20750;-68
2022/10/25 09:23:56;;;;;;;;;;;21.50;99.90;;;;;;5086714;28;19953;-68
2022/10/25 09:26:32;;;;;;;;;;;21.50;99.90;;;;;;5084112;28;19919;-66
2022/10/25 09:29:04;;;;;;;;;;;21.40;99.90;;;;;;5084980;28;20361;-65
2022/10/25 09:31:32;;;;;;;;;;;21.40;99.90;;;;;;5084568;28;19912;-66
2022/10/25 09:34:01;;;;;;;;;;;21.30;99.90;;;;;;5103181;28;19922;-65
2022/10/25 09:36:29;;;;;;;;;;;21.30;99.90;;;;;;5104260;28;19957;-66
2022/10/25 09:38:58;;;;;;;;;;;21.30;99.90;;;;;;5104727;28;19908;-64
2022/10/25 09:41:24;;;;;;;;;;;21.30;99.90;;;;;;5104836;28;19927;-65
2022/10/25 09:44:00;;;;;;;;;;;21.30;99.90;;;;;;5097572;28;20332;-64
2022/10/25 09:46:27;;;;;;;;;;;21.30;99.90;;;;;;5105033;28;19908;-66
2022/10/25 09:49:03;;;;;;;;;;;21.20;99.90;;;;;;5097261;28;19918;-65
2022/10/25 09:51:49;;;;;;;;;;;21.30;99.90;;;;;;5102331;28;19918;-64
2022/10/25 09:54:39;;;;;;;;;;;21.20;99.90;;;;;;5059289;28;19918;-66
2022/10/25 09:57:06;;;;;;;;;;;21.20;99.90;;;;;;5081798;28;19919;-65
2022/10/25 09:59:32;;;;;;;;;;;21.20;99.90;;;;;;5103141;28;20335;-65
2022/10/25 10:01:59;;;;;;;;;;;21.10;99.90;;;;;;5103495;28;19919;-67
2022/10/25 10:04:32;;;;;;;;;;;21.20;99.90;;;;;;5104382;28;19920;-66
2022/10/25 10:07:02;;;;;;;;;;;21.10;99.90;;;;;;5102882;28;19948;-65
2022/10/25 10:09:30;;;;;;;;;;;21.10;99.90;;;;;;5104178;28;19912;-67
2022/10/25 10:11:58;;;;;;;;;;;21.10;99.90;;;;;;5102172;28;19922;-66
2022/10/25 10:14:37;;;;;;;;;;;21.10;99.90;;;;;;5100116;28;19912;-66
2022/10/25 10:17:05;;;;;;;;;;;21.10;99.90;;;;;;5100275;28;20155;-67
2022/10/25 10:19:31;;;;;;;;;;;21.10;99.90;;;;;;5104484;28;19965;-66
2022/10/25 10:22:00;;;;;;;;;;;21.10;99.90;;;;;;5104187;28;19912;-65
2022/10/25 10:24:34;;;;;;;;;;;21.00;99.90;;;;;;5105858;28;19959;-65
2022/10/25 10:27:23;;;;;;;;;;;21.10;99.90;;;;;;5108736;28;20414;-66
2022/10/25 10:30:00;;;;;;;;;;;21.00;99.90;;;;;;5107988;28;19923;-67
2022/10/25 10:32:37;;;;;;;;;;;21.10;99.90;;;;;;5109277;28;19908;-64
2022/10/25 10:35:23;;;;;;;;;;;21.00;99.90;;;;;;5090491;28;20319;-66
2022/10/25 10:37:50;;;;;;;;;;;21.00;99.90;;;;;;5108050;28;19912;-66
2022/10/25 10:40:16;;;;;;;;;;;21.00;99.90;;;;;;5109466;28;20409;-65
2022/10/25 10:42:43;;;;;;;;;;;21.10;99.90;;;;;;5107193;28;19967;-65
2022/10/25 10:45:14;;;;;;;;;;;21.10;99.90;;;;;;5107680;28;20204;-65
2022/10/25 10:47:43;;;;;;;;;;;21.10;99.90;;;;;;5106720;28;19912;-66
2022/10/25 10:50:23;;;;;;;;;;;21.20;99.90;;;;;;5108522;28;19908;-66
2022/10/25 10:52:52;;;;;;;;;;;21.10;99.90;;;;;;5107820;28;19907;-65
2022/10/25 10:55:22;;;;;;;;;;;21.10;99.90;;;;;;5104470;28;20312;-64
2022/10/25 10:57:51;;;;;;;;;;;21.10;99.90;;;;;;5086821;28;19912;-66
2022/10/25 11:00:22;;;;;;;;;;;21.10;99.90;;;;;;5087789;28;19908;-65
2022/10/25 11:02:49;;;;;;;;;;;21.20;99.90;;;;;;5087424;28;19920;-65
2022/10/25 11:05:24;;;;;;;;;;;21.20;99.90;;;;;;5102056;28;19912;-64
2022/10/25 11:07:55;;;;;;;;;;;21.20;99.90;;;;;;5087509;28;19992;-65
2022/10/25 11:10:24;;;;;;;;;;;21.20;99.90;;;;;;5070320;28;20384;-64
2022/10/25 11:13:05;;;;;;;;;;;21.20;99.90;;;;;;5069244;28;19915;-67
2022/10/25 11:15:38;;;;;;;;;;;21.10;99.90;;;;;;5088399;28;19908;-66
2022/10/25 11:18:06;;;;;;;;;;;21.10;99.90;;;;;;5087399;28;20265;-66
2022/10/25 11:20:37;;;;;;;;;;;21.10;99.90;;;;;;5088536;28;19915;-65
2022/10/25 11:23:12;;;;;;;;;;;21.10;99.90;;;;;;5087014;28;19916;-64
2022/10/25 11:25:48;;;;;;;;;;;21.20;99.90;;;;;;5087683;28;19912;-65
2022/10/25 11:28:35;;;;;;;;;;;21.20;99.90;;;;;;5087750;28;19908;-64
2022/10/25 11:31:20;;;;;;;;;;;21.20;99.90;;;;;;5054634;28;20007;-66
2022/10/25 11:34:00;;;;;;;;;;;21.20;99.90;;;;;;5086833;28;19912;-66
2022/10/25 11:36:33;;;;;;;;;;;21.30;99.90;;;;;;5087827;28;19960;-67
2022/10/25 11:39:19;;;;;;;;;;;21.30;99.90;;;;;;5095016;28;19912;-67
2022/10/25 11:41:47;;;;;;;;;;;21.30;99.90;;;;;;5107486;28;19908;-66
2022/10/25 11:44:38;;;;;;;;;;;21.30;99.90;;;;;;5107481;28;19916;-65
2022/10/25 11:47:23;;;;;;;;;;;21.30;99.90;;;;;;5086173;28;19908;-67
2022/10/25 11:49:59;;;;;;;;;;;21.30;99.90;;;;;;5086521;28;19999;-67
2022/10/25 11:52:32;;;;;;;;;;;21.20;99.90;;;;;;5087621;28;19961;-66
2022/10/25 11:54:58;;;;;;;;;;;21.20;99.90;;;;;;5086648;28;19998;-66
2022/10/25 11:57:31;;;;;;;;;;;21.10;99.90;;;;;;5087513;28;19908;-66
2022/10/25 11:59:58;;;;;;;;;;;21.00;99.90;;;;;;5086728;28;19927;-66
2022/10/25 12:02:33;;;;;;;;;;;21.00;99.90;;;;;;5086716;28;19908;-65
2022/10/25 12:05:06;;;;;;;;;;;20.90;99.90;;;;;;5086452;28;19918;-67
2022/10/25 12:08:08;;;;;;;;;;;20.80;99.90;;;;;;5087630;28;19969;-68
2022/10/25 12:10:39;;;;;;;;;;;20.70;99.90;;;;;;5025249;28;19909;-65
2022/10/25 12:13:12;;;;;;;;;;;20.60;99.90;;;;;;5075405;28;19908;-67
2022/10/25 12:15:41;;;;;;;;;;;20.60;99.90;;;;;;5087057;28;19908;-66
2022/10/25 12:18:12;;;;;;;;;;;20.50;99.90;;;;;;5085738;28;19912;-67
2022/10/25 12:20:40;;;;;;;;;;;20.50;99.90;;;;;;5087157;28;20364;-68
2022/10/25 12:23:12;;;;;;;;;;;20.50;99.90;;;;;;5085959;28;19916;-66
2022/10/25 12:26:04;;;;;;;;;;;20.40;99.90;;;;;;5087086;28;19954;-67
2022/10/25 12:28:47;;;;;;;;;;;20.40;99.90;;;;;;5084098;28;20315;-66
2022/10/25 12:31:16;;;;;;;;;;;20.40;99.90;;;;;;5085769;28;19918;-66
2022/10/25 12:33:58;;;;;;;;;;;20.40;99.90;;;;;;5086801;28;19914;-66
2022/10/25 12:36:34;;;;;;;;;;;20.40;99.90;;;;;;5086170;28;19973;-65
2022/10/25 12:39:03;;;;;;;;;;;20.40;99.90;;;;;;5086043;28;19948;-65
2022/10/25 12:41:33;;;;;;;;;;;20.40;99.90;;;;;;5086720;28;19910;-64
2022/10/25 12:43:59;;;;;;;;;;;20.30;99.90;;;;;;5085558;28;19916;-65
2022/10/25 12:46:48;;;;;;;;;;;20.30;99.90;;;;;;5086070;28;19914;-65
2022/10/25 12:49:22;;;;;;;;;;;20.30;99.90;;;;;;5084395;28;20349;-65
2022/10/25 12:52:14;;;;;;;;;;;20.30;99.90;;;;;;5086665;28;19908;-65
2022/10/25 12:54:52;;;;;;;;;;;20.20;99.90;;;;;;5062908;28;20379;-65
2022/10/25 12:57:27;;;;;;;;;;;20.20;99.90;;;;;;5085355;28;20361;-64
2022/10/25 13:00:12;;;;;;;;;;;20.20;99.90;;;;;;5068243;28;19931;-66
2022/10/25 13:02:38;;;;;;;;;;;20.20;99.90;;;;;;5087103;28;20431;-68
2022/10/25 13:05:11;;;;;;;;;;;20.10;99.90;;;;;;5085162;28;19912;-65
2022/10/25 13:07:38;;;;;;;;;;;20.10;99.90;;;;;;5086269;28;19915;-65
2022/10/25 13:10:06;;;;;;;;;;;20.10;99.90;;;;;;5085497;28;19930;-66
2022/10/25 13:12:33;;;;;;;;;;;20.10;99.90;;;;;;5086128;28;20754;-66
2022/10/25 13:15:00;;;;;;;;;;;20.00;99.90;;;;;;5085428;28;20002;-66
2022/10/25 13:17:26;;;;;;;;;;;20.00;99.90;;;;;;5085187;28;19954;-65
2022/10/25 13:19:54;;;;;;;;;;;19.90;99.90;;;;;;5086246;28;20364;-65
2022/10/25 13:22:28;;;;;;;;;;;19.90;99.90;;;;;;5084065;28;20360;-66
2022/10/25 13:24:55;;;;;;;;;;;19.80;99.90;;;;;;5085602;28;19927;-66
2022/10/25 13:27:23;;;;;;;;;;;19.80;99.90;;;;;;5084335;28;19912;-66
2022/10/25 13:30:16;;;;;;;;;;;19.80;99.90;;;;;;5086120;28;19909;-65
2022/10/25 13:32:43;;;;;;;;;;;19.80;99.90;;;;;;5085901;28;19912;-65
2022/10/25 13:35:16;;;;;;;;;;;19.80;99.90;;;;;;5084749;28;19908;-66
2022/10/25 13:37:43;;;;;;;;;;;19.80;99.90;;;;;;5085708;28;20360;-65
2022/10/25 13:40:18;;;;;;;;;;;19.80;99.90;;;;;;5084659;28;20368;-65
2022/10/25 13:42:46;;;;;;;;;;;19.70;99.90;;;;;;5085708;28;19908;-67
2022/10/25 13:45:35;;;;;;;;;;;19.80;99.90;;;;;;5084658;28;20395;-66
2022/10/25 13:48:24;;;;;;;;;;;19.70;99.90;;;;;;5077182;28;19912;-66
2022/10/25 13:50:56;;;;;;;;;;;19.80;99.90;;;;;;5085149;28;20011;-66
2022/10/25 13:53:22;;;;;;;;;;;19.70;99.90;;;;;;5084207;28;20388;-67
2022/10/25 13:56:02;;;;;;;;;;;19.70;99.90;;;;;;5086632;28;19912;-67
2022/10/25 13:58:28;;;;;;;;;;;19.60;99.90;;;;;;5084029;28;19915;-65
2022/10/25 14:00:56;;;;;;;;;;;19.60;99.90;;;;;;5085693;28;19914;-66
2022/10/25 14:03:22;;;;;;;;;;;19.60;99.90;;;;;;5084245;28;20092;-66
2022/10/25 14:05:55;;;;;;;;;;;19.60;99.90;;;;;;5085563;28;19908;-66
2022/10/25 14:08:29;;;;;;;;;;;19.60;99.90;;;;;;5084617;28;19919;-66
2022/10/25 14:10:59;;;;;;;;;;;19.50;99.90;;;;;;5085706;28;19935;-66
2022/10/25 14:13:49;;;;;;;;;;;19.50;99.90;;;;;;5084090;28;19948;-64
2022/10/25 14:16:20;;;;;;;;;;;19.50;99.90;;;;;;5077333;28;19913;-65
2022/10/25 14:18:47;;;;;;;;;;;19.50;99.90;;;;;;5084901;28;20288;-66
2022/10/25 14:21:14;;;;;;;;;;;19.50;99.90;;;;;;5065951;28;20383;-64
2022/10/25 14:23:41;;;;;;;;;;;19.40;99.90;;;;;;5084822;28;19928;-65
2022/10/25 14:26:13;;;;;;;;;;;19.30;99.90;;;;;;5084849;28;19918;-66
2022/10/25 14:28:40;;;;;;;;;;;19.30;99.90;;;;;;5084561;28;20065;-66
2022/10/25 14:31:07;;;;;;;;;;;19.30;99.90;;;;;;5085304;28;19908;-66
2022/10/25 14:33:36;;;;;;;;;;;19.20;99.90;;;;;;5083980;28;19908;-66